Hauptseite
METAR-TAF:

METAR-TAF

Flughäfen :

Flughafen Lübeck

Lübeck, Deutschland

Breite: 53-49N, Länge: 010-42E, Höhe: 14 m

Beobachtung

Neuester Wetterbericht von vor 36 Minuten, um 17:50 UTC
Wind 11 kt aus West, variierte zwischen Südwest und Nordwest
Temperatur 10°C
Luftfeuchtigkeit 57%
Luftdruck 1017 hPa
Sichtweite 10 km oder mehr
keine Wolken unter 1500 m und keine Kumulonimbus oder Gewitterwolken

METAR: EDHL 141750Z 28011KT 220V320 CAVOK 10/02 Q1017

Zeit: 20:26 (18:26 UTC)

Prognose

Neuester Wetterbericht von vor 1 Stunde und 26 Minuten, um 17:00 UTC
Gültige Prognose vom 14 um 18 UTC bis 14 um 21 UTC
Wind 10 kt aus West
Sichtweite 10 km oder mehr
Leicht bewölkt in der Höhe von 3000 ft
Übergehend zu
vom 14 um 19 UTC bis 14 um 21 UTC
Wind 5 kt aus West

TAF: EDHL 141700Z 1418/1421 28010KT 9999 FEW030 BECMG 1419/1421 26005KT

Wetterbeobachtungen und Prognosen von mehr als 4000 Flughäfen (METAR und TAF Bericht).

Die verfügbaren Stationen werden durch gelbe und rote Markierungen auf der Karte dargestellt.

Führen Sie die Maus auf sie, um den Namen der Station zu sehen.

Darauf klicken, um die Beobachtung von Wetterbeobachtungen und Prognosen zu sehen.

Um die Karte zu ändern : klicken Sie auf den grünen Tasten mit einem schwarzen Kreuz Zum Vergrößern, auf den grünen Button mit einem Gedankenstrich zu verkleinern, oder auf die grünen Pfeile für benachbarte Karten.


METAR-TAF: